sensor_id;sensor_type;location;lat;lon;timestamp;pressure;altitude;pressure_sealevel;temperature;humidity
40490;BME280;26196;52.302;10.572;2023-04-04T00:02:36;102149.81;;;10.29;42.83
40490;BME280;26196;52.302;10.572;2023-04-04T00:06:36;102147.16;;;10.24;42.89
40490;BME280;26196;52.302;10.572;2023-04-04T00:11:11;102150.66;;;10.19;42.87
40490;BME280;26196;52.302;10.572;2023-04-04T00:15:12;102152.41;;;10.20;42.33
40490;BME280;26196;52.302;10.572;2023-04-04T00:19:12;102155.88;;;10.16;42.28
40490;BME280;26196;52.302;10.572;2023-04-04T00:23:17;102149.78;;;10.09;42.94
40490;BME280;26196;52.302;10.572;2023-04-04T00:27:51;102150.66;;;10.06;42.40
40490;BME280;26196;52.302;10.572;2023-04-04T00:31:52;102156.75;;;10.05;42.46
40490;BME280;26196;52.302;10.572;2023-04-04T00:35:52;102148.91;;;10.04;42.44
40490;BME280;26196;52.302;10.572;2023-04-04T00:39:52;102151.53;;;9.99;42.44
40490;BME280;26196;52.302;10.572;2023-04-04T00:44:30;102149.78;;;9.94;42.36
40490;BME280;26196;52.302;10.572;2023-04-04T00:48:31;102150.63;;;9.94;41.64
40490;BME280;26196;52.302;10.572;2023-04-04T00:52:32;102148.88;;;9.89;41.79
40490;BME280;26196;52.302;10.572;2023-04-04T00:56:35;102148.00;;;9.86;41.42
40490;BME280;26196;52.302;10.572;2023-04-04T01:00:37;102145.38;;;9.85;41.82
40490;BME280;26196;52.302;10.572;2023-04-04T01:04:37;102145.38;;;9.79;41.42
40490;BME280;26196;52.302;10.572;2023-04-04T01:08:38;102143.66;;;9.78;42.02
40490;BME280;26196;52.302;10.572;2023-04-04T01:13:13;102142.75;;;9.74;42.08
40490;BME280;26196;52.302;10.572;2023-04-04T01:17:14;102136.63;;;9.72;41.38
40490;BME280;26196;52.302;10.572;2023-04-04T01:21:15;102134.03;;;9.68;41.32
40490;BME280;26196;52.302;10.572;2023-04-04T01:25:58;102135.75;;;9.66;41.45
40490;BME280;26196;52.302;10.572;2023-04-04T01:29:59;102130.50;;;9.61;41.47
40490;BME280;26196;52.302;10.572;2023-04-04T01:34:10;102134.00;;;9.58;41.64
40490;BME280;26196;52.302;10.572;2023-04-04T01:42:46;102128.75;;;9.55;40.99
40490;BME280;26196;52.302;10.572;2023-04-04T01:46:54;102121.75;;;9.51;41.79
40490;BME280;26196;52.302;10.572;2023-04-04T01:51:22;102128.75;;;9.52;41.30
40490;BME280;26196;52.302;10.572;2023-04-04T01:55:23;102126.13;;;9.49;40.85
40490;BME280;26196;52.302;10.572;2023-04-04T02:04:01;102119.13;;;9.42;41.36
40490;BME280;26196;52.302;10.572;2023-04-04T02:08:01;102107.78;;;9.35;41.64
40490;BME280;26196;52.302;10.572;2023-04-04T02:12:36;102107.78;;;9.37;40.77
40490;BME280;26196;52.302;10.572;2023-04-04T02:16:36;102106.91;;;9.32;41.14
40490;BME280;26196;52.302;10.572;2023-04-04T02:20:37;102099.94;;;9.32;40.84
40490;BME280;26196;52.302;10.572;2023-04-04T02:25:11;102098.16;;;9.27;41.25
40490;BME280;26196;52.302;10.572;2023-04-04T02:29:11;102092.94;;;9.24;41.15
40490;BME280;26196;52.302;10.572;2023-04-04T02:37:46;102080.72;;;9.16;40.99
40490;BME280;26196;52.302;10.572;2023-04-04T02:41:46;102085.06;;;9.14;41.32
40490;BME280;26196;52.302;10.572;2023-04-04T02:50:24;102071.97;;;9.08;41.21
40490;BME280;26196;52.302;10.572;2023-04-04T02:54:24;102074.56;;;9.07;41.17
40490;BME280;26196;52.302;10.572;2023-04-04T02:59:02;102074.56;;;9.05;41.35
40490;BME280;26196;52.302;10.572;2023-04-04T03:03:03;102063.25;;;9.00;41.22
40490;BME280;26196;52.302;10.572;2023-04-04T03:07:04;102063.22;;;8.97;40.57
40490;BME280;26196;52.302;10.572;2023-04-04T03:11:41;102060.59;;;8.98;41.03
40490;BME280;26196;52.302;10.572;2023-04-04T03:15:42;102052.75;;;8.94;40.82
40490;BME280;26196;52.302;10.572;2023-04-04T03:19:43;102057.09;;;8.93;40.52
40490;BME280;26196;52.302;10.572;2023-04-04T03:23:43;102057.94;;;8.88;40.75
40490;BME280;26196;52.302;10.572;2023-04-04T03:32:21;102037.03;;;8.82;40.65
40490;BME280;26196;52.302;10.572;2023-04-04T03:36:58;102036.19;;;8.84;40.54
40490;BME280;26196;52.302;10.572;2023-04-04T03:41:02;102040.50;;;8.77;40.95
40490;BME280;26196;52.302;10.572;2023-04-04T03:45:03;102042.22;;;8.75;40.53
40490;BME280;26196;52.302;10.572;2023-04-04T03:49:03;102038.75;;;8.76;40.61
40490;BME280;26196;52.302;10.572;2023-04-04T03:53:04;102037.88;;;8.74;40.98
40490;BME280;26196;52.302;10.572;2023-04-04T03:57:41;102039.59;;;8.72;41.02
40490;BME280;26196;52.302;10.572;2023-04-04T04:01:41;102031.72;;;8.65;41.21
40490;BME280;26196;52.302;10.572;2023-04-04T04:10:19;102026.47;;;8.60;41.19
40490;BME280;26196;52.302;10.572;2023-04-04T04:14:19;102019.53;;;8.62;40.89
40490;BME280;26196;52.302;10.572;2023-04-04T04:18:20;102014.28;;;8.56;40.57
40490;BME280;26196;52.302;10.572;2023-04-04T04:22:20;102017.75;;;8.55;41.22
40490;BME280;26196;52.302;10.572;2023-04-04T04:26:57;102027.31;;;8.54;41.38
40490;BME280;26196;52.302;10.572;2023-04-04T04:31:08;102016.88;;;8.50;41.49
40490;BME280;26196;52.302;10.572;2023-04-04T04:35:39;102022.94;;;8.46;41.32
40490;BME280;26196;52.302;10.572;2023-04-04T04:39:40;102015.09;;;8.43;41.02
40490;BME280;26196;52.302;10.572;2023-04-04T04:43:40;102028.16;;;8.46;41.19
40490;BME280;26196;52.302;10.572;2023-04-04T04:48:14;102021.97;;;8.38;41.09
40490;BME280;26196;52.302;10.572;2023-04-04T04:52:16;102030.72;;;8.41;41.21
40490;BME280;26196;52.302;10.572;2023-04-04T04:56:18;102023.78;;;8.43;40.78
40490;BME280;26196;52.302;10.572;2023-04-04T05:00:19;102023.78;;;8.43;40.94
40490;BME280;26196;52.302;10.572;2023-04-04T05:04:19;102042.03;;;8.42;41.20
40490;BME280;26196;52.302;10.572;2023-04-04T05:08:19;102040.28;;;8.41;41.02
40490;BME280;26196;52.302;10.572;2023-04-04T05:12:21;102031.50;;;8.34;41.41
40490;BME280;26196;52.302;10.572;2023-04-04T05:16:21;102045.50;;;8.39;41.35
40490;BME280;26196;52.302;10.572;2023-04-04T05:20:21;102045.44;;;8.35;41.57
40490;BME280;26196;52.302;10.572;2023-04-04T05:24:22;102046.31;;;8.35;40.72
40490;BME280;26196;52.302;10.572;2023-04-04T05:28:22;102062.81;;;8.32;41.04
40490;BME280;26196;52.302;10.572;2023-04-04T05:32:23;102068.03;;;8.32;41.14
40490;BME280;26196;52.302;10.572;2023-04-04T05:36:23;102061.09;;;8.35;41.10
40490;BME280;26196;52.302;10.572;2023-04-04T05:40:57;102074.09;;;8.28;41.02
40490;BME280;26196;52.302;10.572;2023-04-04T05:44:57;102070.56;;;8.23;41.44
40490;BME280;26196;52.302;10.572;2023-04-04T05:48:58;102071.47;;;8.25;41.31
40490;BME280;26196;52.302;10.572;2023-04-04T05:52:58;102071.44;;;8.22;41.55
40490;BME280;26196;52.302;10.572;2023-04-04T05:56:58;102077.53;;;8.23;41.08
40490;BME280;26196;52.302;10.572;2023-04-04T06:01:33;102078.38;;;8.20;41.68
40490;BME280;26196;52.302;10.572;2023-04-04T06:06:10;102075.78;;;8.23;41.58
40490;BME280;26196;52.302;10.572;2023-04-04T06:10:11;102080.16;;;8.24;41.67
40490;BME280;26196;52.302;10.572;2023-04-04T06:14:11;102080.97;;;8.20;41.45
40490;BME280;26196;52.302;10.572;2023-04-04T06:18:12;102077.53;;;8.23;41.59
40490;BME280;26196;52.302;10.572;2023-04-04T06:22:13;102055.66;;;8.07;41.54
40490;BME280;26196;52.302;10.572;2023-04-04T06:26:15;102088.81;;;8.20;41.75
40490;BME280;26196;52.302;10.572;2023-04-04T06:30:15;102082.75;;;8.23;42.13
40490;BME280;26196;52.302;10.572;2023-04-04T06:34:17;102087.09;;;8.22;42.20
40490;BME280;26196;52.302;10.572;2023-04-04T06:38:19;102080.16;;;8.24;42.54
40490;BME280;26196;52.302;10.572;2023-04-04T06:42:57;102085.38;;;8.26;42.42
40490;BME280;26196;52.302;10.572;2023-04-04T06:46:57;102088.91;;;8.29;42.19
40490;BME280;26196;52.302;10.572;2023-04-04T06:51:35;102088.00;;;8.27;42.80
40490;BME280;26196;52.302;10.572;2023-04-04T06:55:35;102086.28;;;8.29;42.60
40490;BME280;26196;52.302;10.572;2023-04-04T07:04:13;102094.97;;;8.27;42.87
40490;BME280;26196;52.302;10.572;2023-04-04T07:08:48;102100.19;;;8.30;43.58
40490;BME280;26196;52.302;10.572;2023-04-04T07:13:25;102103.69;;;8.30;43.21
40490;BME280;26196;52.302;10.572;2023-04-04T07:18:00;102088.13;;;8.40;43.52
40490;BME280;26196;52.302;10.572;2023-04-04T07:22:00;102092.47;;;8.41;43.72
40490;BME280;26196;52.302;10.572;2023-04-04T07:26:38;102087.25;;;8.41;43.92
40490;BME280;26196;52.302;10.572;2023-04-04T07:31:14;102085.53;;;8.40;43.83
40490;BME280;26196;52.302;10.572;2023-04-04T07:35:14;102094.28;;;8.51;44.23
40490;BME280;26196;52.302;10.572;2023-04-04T07:39:48;102090.91;;;8.64;43.34
40490;BME280;26196;52.302;10.572;2023-04-04T07:44:25;102094.38;;;8.63;43.30
40490;BME280;26196;52.302;10.572;2023-04-04T07:49:03;102090.03;;;8.65;43.20
40490;BME280;26196;52.302;10.572;2023-04-04T08:02:24;102080.47;;;8.70;43.73
40490;BME280;26196;52.302;10.572;2023-04-04T08:07:02;102087.47;;;8.74;43.52
40490;BME280;26196;52.302;10.572;2023-04-04T08:11:02;102088.41;;;8.84;44.41
40490;BME280;26196;52.302;10.572;2023-04-04T08:15:03;102086.75;;;8.97;44.77
40490;BME280;26196;52.302;10.572;2023-04-04T08:19:37;102085.03;;;9.08;44.64
40490;BME280;26196;52.302;10.572;2023-04-04T08:24:15;102085.91;;;9.15;44.45
40490;BME280;26196;52.302;10.572;2023-04-04T08:33:29;102084.22;;;9.28;45.25
40490;BME280;26196;52.302;10.572;2023-04-04T08:38:07;102076.41;;;9.32;45.60
40490;BME280;26196;52.302;10.572;2023-04-04T08:42:07;102079.91;;;9.34;45.62
40490;BME280;26196;52.302;10.572;2023-04-04T08:46:43;102075.56;;;9.39;45.51
40490;BME280;26196;52.302;10.572;2023-04-04T08:51:19;102073.81;;;9.46;45.45
40490;BME280;26196;52.302;10.572;2023-04-04T08:55:54;102071.25;;;9.49;45.62
40490;BME280;26196;52.302;10.572;2023-04-04T08:59:54;102059.94;;;9.55;45.73
40490;BME280;26196;52.302;10.572;2023-04-04T09:04:28;102061.66;;;9.60;45.77
40490;BME280;26196;52.302;10.572;2023-04-04T09:09:04;102060.81;;;9.64;46.19
40490;BME280;26196;52.302;10.572;2023-04-04T09:22:27;102048.59;;;9.74;46.07
40490;BME280;26196;52.302;10.572;2023-04-04T09:27:02;102053.84;;;9.77;45.67
40490;BME280;26196;52.302;10.572;2023-04-04T09:31:06;102047.75;;;9.81;46.21
40490;BME280;26196;52.302;10.572;2023-04-04T09:35:44;102045.16;;;9.86;45.77
40490;BME280;26196;52.302;10.572;2023-04-04T09:40:20;102056.47;;;9.91;45.47
40490;BME280;26196;52.302;10.572;2023-04-04T09:44:56;102053.84;;;9.96;45.63
40490;BME280;26196;52.302;10.572;2023-04-04T09:58:46;102058.19;;;10.14;46.53
40490;BME280;26196;52.302;10.572;2023-04-04T10:03:21;102056.44;;;10.19;46.41
40490;BME280;26196;52.302;10.572;2023-04-04T10:07:56;102051.25;;;10.06;45.94
40490;BME280;26196;52.302;10.572;2023-04-04T10:12:31;102061.69;;;10.13;45.53
40490;BME280;26196;52.302;10.572;2023-04-04T10:17:09;102057.34;;;10.12;46.03
40490;BME280;26196;52.302;10.572;2023-04-04T10:21:46;102047.72;;;10.14;46.18
40490;BME280;26196;52.302;10.572;2023-04-04T10:26:24;102057.31;;;10.16;46.22
40490;BME280;26196;52.302;10.572;2023-04-04T10:40:16;102048.63;;;10.25;46.72
40490;BME280;26196;52.302;10.572;2023-04-04T10:44:52;102037.25;;;10.26;46.19
40490;BME280;26196;52.302;10.572;2023-04-04T10:49:27;102029.44;;;10.29;46.28
40490;BME280;26196;52.302;10.572;2023-04-04T10:58:40;102017.22;;;10.33;46.48
40490;BME280;26196;52.302;10.572;2023-04-04T11:03:17;102011.13;;;10.31;46.60
40490;BME280;26196;52.302;10.572;2023-04-04T11:12:32;102000.63;;;10.32;47.34
40490;BME280;26196;52.302;10.572;2023-04-04T11:16:45;101996.28;;;10.34;46.80
40490;BME280;26196;52.302;10.572;2023-04-04T11:20:46;101982.31;;;10.34;47.15
40490;BME280;26196;52.302;10.572;2023-04-04T11:24:47;101978.81;;;10.41;47.37
40490;BME280;26196;52.302;10.572;2023-04-04T11:34:03;101967.47;;;10.46;46.75
40490;BME280;26196;52.302;10.572;2023-04-04T11:38:38;101970.94;;;10.48;47.38
40490;BME280;26196;52.302;10.572;2023-04-04T11:43:13;101957.84;;;10.51;47.70
40490;BME280;26196;52.302;10.572;2023-04-04T11:47:48;101953.47;;;10.57;47.56
40490;BME280;26196;52.302;10.572;2023-04-04T11:57:04;101944.69;;;10.62;47.46
40490;BME280;26196;52.302;10.572;2023-04-04T12:01:39;101935.09;;;10.69;47.76
40490;BME280;26196;52.302;10.572;2023-04-04T12:06:14;101934.19;;;10.70;47.15
40490;BME280;26196;52.302;10.572;2023-04-04T12:10:49;101926.31;;;10.73;47.64
40490;BME280;26196;52.302;10.572;2023-04-04T12:15:26;101915.84;;;10.75;47.40
40490;BME280;26196;52.302;10.572;2023-04-04T12:20:01;101919.31;;;10.77;47.88
40490;BME280;26196;52.302;10.572;2023-04-04T12:24:38;101915.81;;;10.81;47.31
40490;BME280;26196;52.302;10.572;2023-04-04T12:28:38;101905.31;;;10.85;48.18
40490;BME280;26196;52.302;10.572;2023-04-04T12:33:13;101897.41;;;10.88;47.70
40490;BME280;26196;52.302;10.572;2023-04-04T12:47:05;101872.00;;;11.00;46.99
40490;BME280;26196;52.302;10.572;2023-04-04T12:51:40;101876.38;;;11.04;46.90
40490;BME280;26196;52.302;10.572;2023-04-04T13:05:31;101865.78;;;11.14;46.69
40490;BME280;26196;52.302;10.572;2023-04-04T13:19:21;101839.53;;;11.22;46.85
40490;BME280;26196;52.302;10.572;2023-04-04T13:28:36;101829.88;;;11.29;47.03
40490;BME280;26196;52.302;10.572;2023-04-04T13:32:37;101817.56;;;11.34;47.13
40490;BME280;26196;52.302;10.572;2023-04-04T13:37:14;101817.53;;;11.38;47.16
40490;BME280;26196;52.302;10.572;2023-04-04T13:41:49;101807.91;;;11.42;46.98
40490;BME280;26196;52.302;10.572;2023-04-04T13:46:26;101803.53;;;11.43;46.99
40490;BME280;26196;52.302;10.572;2023-04-04T14:04:18;101781.56;;;11.53;46.88
40490;BME280;26196;52.302;10.572;2023-04-04T14:08:18;101774.56;;;11.52;46.93
40490;BME280;26196;52.302;10.572;2023-04-04T14:12:55;101782.41;;;11.56;46.73
40490;BME280;26196;52.302;10.572;2023-04-04T14:16:55;101769.25;;;11.59;46.72
40490;BME280;26196;52.302;10.572;2023-04-04T14:21:30;101765.72;;;11.62;46.73
40490;BME280;26196;52.302;10.572;2023-04-04T14:26:07;101763.03;;;11.67;47.17
40490;BME280;26196;52.302;10.572;2023-04-04T14:30:08;101765.66;;;11.68;46.93
40490;BME280;26196;52.302;10.572;2023-04-04T14:34:08;101769.13;;;11.70;47.17
40490;BME280;26196;52.302;10.572;2023-04-04T14:38:44;101758.59;;;11.73;47.26
40490;BME280;26196;52.302;10.572;2023-04-04T14:43:21;101757.63;;;11.80;47.48
40490;BME280;26196;52.302;10.572;2023-04-04T14:47:58;101758.44;;;11.86;46.54
40490;BME280;26196;52.302;10.572;2023-04-04T14:57:10;101749.69;;;11.90;46.23
40490;BME280;26196;52.302;10.572;2023-04-04T15:01:45;101750.50;;;11.95;45.15
40490;BME280;26196;52.302;10.572;2023-04-04T15:06:22;101750.47;;;11.96;45.49
40490;BME280;26196;52.302;10.572;2023-04-04T15:10:59;101741.72;;;11.97;45.54
40490;BME280;26196;52.302;10.572;2023-04-04T15:14:59;101743.44;;;12.00;46.03
40490;BME280;26196;52.302;10.572;2023-04-04T15:19:34;101738.19;;;12.00;46.40
40490;BME280;26196;52.302;10.572;2023-04-04T15:24:09;101735.50;;;12.03;46.30
40490;BME280;26196;52.302;10.572;2023-04-04T15:28:46;101733.75;;;12.05;46.54
40490;BME280;26196;52.302;10.572;2023-04-04T15:42:46;101718.75;;;12.12;46.48
40490;BME280;26196;52.302;10.572;2023-04-04T15:47:23;101725.69;;;12.17;46.54
40490;BME280;26196;52.302;10.572;2023-04-04T15:56:01;101702.06;;;12.17;46.90
40490;BME280;26196;52.302;10.572;2023-04-04T16:00:38;101706.38;;;12.21;46.42
40490;BME280;26196;52.302;10.572;2023-04-04T16:05:13;101700.22;;;12.22;46.44
40490;BME280;26196;52.302;10.572;2023-04-04T16:09:50;101691.47;;;12.23;46.09
40490;BME280;26196;52.302;10.572;2023-04-04T16:18:28;101681.78;;;12.27;45.95
40490;BME280;26196;52.302;10.572;2023-04-04T16:23:05;101686.13;;;12.31;45.72
40490;BME280;26196;52.302;10.572;2023-04-04T16:27:40;101679.91;;;12.37;46.18
40490;BME280;26196;52.302;10.572;2023-04-04T16:31:40;101678.19;;;12.36;45.88
40490;BME280;26196;52.302;10.572;2023-04-04T16:40:38;101681.59;;;12.39;46.27
40490;BME280;26196;52.302;10.572;2023-04-04T16:45:12;101678.97;;;12.39;46.00
40490;BME280;26196;52.302;10.572;2023-04-04T16:49:13;101671.97;;;12.40;46.00
40490;BME280;26196;52.302;10.572;2023-04-04T16:53:47;101674.59;;;12.41;46.10
40490;BME280;26196;52.302;10.572;2023-04-04T17:02:59;101677.22;;;12.40;46.11
40490;BME280;26196;52.302;10.572;2023-04-04T17:07:36;101681.56;;;12.42;45.79
40490;BME280;26196;52.302;10.572;2023-04-04T17:16:51;101684.16;;;12.44;45.94
40490;BME280;26196;52.302;10.572;2023-04-04T17:20:52;101682.41;;;12.43;45.96
40490;BME280;26196;52.302;10.572;2023-04-04T17:25:26;101684.06;;;12.48;45.42
40490;BME280;26196;52.302;10.572;2023-04-04T17:30:02;101682.34;;;12.49;45.70
40490;BME280;26196;52.302;10.572;2023-04-04T17:34:37;101678.81;;;12.50;45.04
40490;BME280;26196;52.302;10.572;2023-04-04T17:39:14;101684.91;;;12.51;45.15
40490;BME280;26196;52.302;10.572;2023-04-04T17:43:50;101686.69;;;12.50;45.13
40490;BME280;26196;52.302;10.572;2023-04-04T17:48:24;101684.91;;;12.52;44.50
40490;BME280;26196;52.302;10.572;2023-04-04T17:52:59;101678.75;;;12.53;43.94
40490;BME280;26196;52.302;10.572;2023-04-04T17:57:01;101677.03;;;12.51;44.11
40490;BME280;26196;52.302;10.572;2023-04-04T18:01:37;101687.50;;;12.54;44.73
40490;BME280;26196;52.302;10.572;2023-04-04T18:06:12;101685.75;;;12.54;44.15
40490;BME280;26196;52.302;10.572;2023-04-04T18:14:49;101685.75;;;12.54;44.11
40490;BME280;26196;52.302;10.572;2023-04-04T18:19:27;101682.22;;;12.55;44.07
40490;BME280;26196;52.302;10.572;2023-04-04T18:24:02;101692.72;;;12.55;44.24
40490;BME280;26196;52.302;10.572;2023-04-04T18:28:37;101685.75;;;12.53;43.71
40490;BME280;26196;52.302;10.572;2023-04-04T18:33:11;101684.00;;;12.53;44.17
40490;BME280;26196;52.302;10.572;2023-04-04T18:42:09;101685.78;;;12.51;44.11
40490;BME280;26196;52.302;10.572;2023-04-04T18:46:43;101691.94;;;12.52;43.52
40490;BME280;26196;52.302;10.572;2023-04-04T18:50:44;101690.13;;;12.54;43.98
40490;BME280;26196;52.302;10.572;2023-04-04T18:55:18;101689.25;;;12.55;43.95
40490;BME280;26196;52.302;10.572;2023-04-04T18:59:53;101692.78;;;12.52;44.19
40490;BME280;26196;52.302;10.572;2023-04-04T19:09:05;101691.06;;;12.50;43.97
40490;BME280;26196;52.302;10.572;2023-04-04T19:13:08;101698.94;;;12.50;43.80
40490;BME280;26196;52.302;10.572;2023-04-04T19:17:09;101694.56;;;12.48;43.71
40490;BME280;26196;52.302;10.572;2023-04-04T19:30:57;101691.19;;;12.42;43.03
40490;BME280;26196;52.302;10.572;2023-04-04T19:34:59;101684.22;;;12.41;43.37
40490;BME280;26196;52.302;10.572;2023-04-04T19:38:59;101686.81;;;12.42;42.61
40490;BME280;26196;52.302;10.572;2023-04-04T19:43:39;101680.75;;;12.37;42.78
40490;BME280;26196;52.302;10.572;2023-04-04T19:52:35;101678.97;;;12.41;42.24
40490;BME280;26196;52.302;10.572;2023-04-04T19:56:35;101686.88;;;12.39;42.20
40490;BME280;26196;52.302;10.572;2023-04-04T20:14:28;101686.13;;;12.31;41.76
40490;BME280;26196;52.302;10.572;2023-04-04T20:19:03;101683.50;;;12.31;41.50
40490;BME280;26196;52.302;10.572;2023-04-04T20:23:41;101680.88;;;12.30;40.97
40490;BME280;26196;52.302;10.572;2023-04-04T20:32:40;101680.94;;;12.26;41.22
40490;BME280;26196;52.302;10.572;2023-04-04T20:36:40;101686.22;;;12.23;41.13
40490;BME280;26196;52.302;10.572;2023-04-04T20:41:21;101677.56;;;12.18;40.86
40490;BME280;26196;52.302;10.572;2023-04-04T20:45:54;101687.22;;;12.16;40.95
40490;BME280;26196;52.302;10.572;2023-04-04T20:49:55;101680.25;;;12.14;41.14
40490;BME280;26196;52.302;10.572;2023-04-04T20:54:29;101682.97;;;12.06;41.09
40490;BME280;26196;52.302;10.572;2023-04-04T20:58:30;101671.63;;;12.04;41.10
40490;BME280;26196;52.302;10.572;2023-04-04T21:02:30;101666.44;;;12.02;40.17
40490;BME280;26196;52.302;10.572;2023-04-04T21:06:31;101665.63;;;11.96;40.20
40490;BME280;26196;52.302;10.572;2023-04-04T21:11:10;101669.97;;;11.98;40.67
40490;BME280;26196;52.302;10.572;2023-04-04T21:15:44;101671.78;;;11.95;39.98
40490;BME280;26196;52.302;10.572;2023-04-04T21:19:44;101671.78;;;11.93;39.83
40490;BME280;26196;52.302;10.572;2023-04-04T21:24:19;101676.19;;;11.93;40.06
40490;BME280;26196;52.302;10.572;2023-04-04T21:28:19;101672.69;;;11.91;39.92
40490;BME280;26196;52.302;10.572;2023-04-04T21:32:54;101673.59;;;11.88;40.26
40490;BME280;26196;52.302;10.572;2023-04-04T21:36:59;101666.66;;;11.84;39.79
40490;BME280;26196;52.302;10.572;2023-04-04T21:41:31;101663.19;;;11.80;40.30
40490;BME280;26196;52.302;10.572;2023-04-04T21:46:06;101658.84;;;11.81;40.43
40490;BME280;26196;52.302;10.572;2023-04-04T21:50:06;101653.59;;;11.79;39.85
40490;BME280;26196;52.302;10.572;2023-04-04T21:54:44;101650.16;;;11.74;40.04
40490;BME280;26196;52.302;10.572;2023-04-04T21:59:21;101641.44;;;11.72;39.92
40490;BME280;26196;52.302;10.572;2023-04-04T22:03:21;101644.97;;;11.70;39.93
40490;BME280;26196;52.302;10.572;2023-04-04T22:07:59;101645.88;;;11.67;39.89
40490;BME280;26196;52.302;10.572;2023-04-04T22:12:33;101643.38;;;11.61;40.25
40490;BME280;26196;52.302;10.572;2023-04-04T22:16:39;101628.59;;;11.55;39.68
40490;BME280;26196;52.302;10.572;2023-04-04T22:20:46;101632.88;;;11.59;39.55
40490;BME280;26196;52.302;10.572;2023-04-04T22:25:20;101635.59;;;11.53;39.74
40490;BME280;26196;52.302;10.572;2023-04-04T22:33:58;101644.41;;;11.48;39.49
40490;BME280;26196;52.302;10.572;2023-04-04T22:38:35;101633.06;;;11.44;39.45
40490;BME280;26196;52.302;10.572;2023-04-04T22:42:38;101629.63;;;11.42;39.60
40490;BME280;26196;52.302;10.572;2023-04-04T22:46:38;101640.16;;;11.37;39.78
40490;BME280;26196;52.302;10.572;2023-04-04T22:50:40;101639.25;;;11.38;39.41
40490;BME280;26196;52.302;10.572;2023-04-04T22:54:41;101632.34;;;11.34;39.40
40490;BME280;26196;52.302;10.572;2023-04-04T22:58:41;101637.56;;;11.36;39.51
40490;BME280;26196;52.302;10.572;2023-04-04T23:03:18;101631.44;;;11.35;39.44
40490;BME280;26196;52.302;10.572;2023-04-04T23:11:56;101633.31;;;11.27;39.25
40490;BME280;26196;52.302;10.572;2023-04-04T23:16:31;101630.72;;;11.23;39.22
40490;BME280;26196;52.302;10.572;2023-04-04T23:20:34;101620.28;;;11.21;39.42
40490;BME280;26196;52.302;10.572;2023-04-04T23:24:36;101621.19;;;11.19;39.20
40490;BME280;26196;52.302;10.572;2023-04-04T23:28:36;101623.00;;;11.12;39.17
40490;BME280;26196;52.302;10.572;2023-04-04T23:42:12;101616.09;;;11.05;39.18
40490;BME280;26196;52.302;10.572;2023-04-04T23:46:46;101616.16;;;10.99;38.60
40490;BME280;26196;52.302;10.572;2023-04-04T23:50:48;101612.72;;;10.93;38.84
40490;BME280;26196;52.302;10.572;2023-04-04T23:55:26;101610.09;;;10.93;38.65
40490;BME280;26196;52.302;10.572;2023-04-04T23:59:26;101592.69;;;10.89;38.75
